createdAt,value
2022-10-04T00:00:36.492Z,0.60
2022-10-04T00:03:10.179Z,0.40
2022-10-04T00:05:40.588Z,0.45
2022-10-04T00:08:25.843Z,0.50
2022-10-04T00:11:07.593Z,0.50
2022-10-04T00:13:36.487Z,0.70
2022-10-04T00:16:03.339Z,0.60
2022-10-04T00:18:44.751Z,0.70
2022-10-04T00:21:11.275Z,0.52
2022-10-04T00:23:37.686Z,0.60
2022-10-04T00:26:10.543Z,0.73
2022-10-04T00:28:36.853Z,1.10
2022-10-04T00:31:11.238Z,1.30
2022-10-04T00:33:37.606Z,0.90
2022-10-04T00:36:32.488Z,1.05
2022-10-04T00:39:04.959Z,1.05
2022-10-04T00:41:39.540Z,0.98
2022-10-04T00:44:16.679Z,1.00
2022-10-04T00:46:45.290Z,1.00
2022-10-04T00:49:14.079Z,0.95
2022-10-04T00:51:46.450Z,1.10
2022-10-04T00:54:38.625Z,1.10
2022-10-04T00:57:17.692Z,1.00
2022-10-04T00:59:58.000Z,1.17
2022-10-04T01:02:44.326Z,1.80
2022-10-04T01:05:17.739Z,1.80
2022-10-04T01:07:53.004Z,1.60
2022-10-04T01:10:31.848Z,1.10
2022-10-04T01:13:17.806Z,1.20
2022-10-04T01:15:53.318Z,1.27
2022-10-04T01:18:19.711Z,1.10
2022-10-04T01:21:05.472Z,0.85
2022-10-04T01:24:14.394Z,0.90
2022-10-04T01:26:43.115Z,0.80
2022-10-04T01:29:19.075Z,0.80
2022-10-04T01:31:48.434Z,0.90
2022-10-04T01:34:23.265Z,0.88
2022-10-04T01:36:53.584Z,1.13
2022-10-04T01:39:23.231Z,1.08
2022-10-04T01:42:10.933Z,0.90
2022-10-04T01:44:46.312Z,0.95
2022-10-04T01:47:16.666Z,0.80
2022-10-04T01:49:46.720Z,0.73
2022-10-04T01:52:13.084Z,0.75
2022-10-04T01:54:43.488Z,0.73
2022-10-04T01:57:18.183Z,0.90
2022-10-04T02:00:05.346Z,0.80
2022-10-04T02:02:41.268Z,1.30
2022-10-04T02:05:12.417Z,1.40
2022-10-04T02:07:40.736Z,1.27
2022-10-04T02:10:13.054Z,1.30
2022-10-04T02:12:46.291Z,1.10
2022-10-04T02:15:13.830Z,1.33
2022-10-04T02:17:44.130Z,1.20
2022-10-04T02:20:21.438Z,2.00
2022-10-04T02:22:54.927Z,1.30
2022-10-04T02:25:21.832Z,1.35
2022-10-04T02:27:53.672Z,2.00
2022-10-04T02:30:20.632Z,1.50
2022-10-04T02:33:00.312Z,2.60
2022-10-04T02:35:32.789Z,2.13
2022-10-04T02:38:22.525Z,2.75
2022-10-04T02:40:57.818Z,3.72
2022-10-04T02:43:30.350Z,2.28
2022-10-04T02:46:16.808Z,1.70
2022-10-04T02:48:55.327Z,1.73
2022-10-04T02:51:28.305Z,1.60
2022-10-04T02:54:07.166Z,2.15
2022-10-04T02:56:35.732Z,2.38
2022-10-04T02:59:06.752Z,2.20
2022-10-04T03:01:43.893Z,2.25
2022-10-04T03:04:15.047Z,2.10
2022-10-04T03:06:43.333Z,2.60
2022-10-04T03:09:09.995Z,2.03
2022-10-04T03:11:40.613Z,1.92
2022-10-04T03:14:15.991Z,1.83
2022-10-04T03:16:44.871Z,2.10
2022-10-04T03:19:14.301Z,2.13
2022-10-04T03:21:43.753Z,2.20
2022-10-04T03:24:28.792Z,2.05
2022-10-04T03:26:59.818Z,2.13
2022-10-04T03:29:28.313Z,1.85
2022-10-04T03:32:00.005Z,2.03
2022-10-04T03:34:33.541Z,1.73
2022-10-04T03:37:02.230Z,1.77
2022-10-04T03:39:33.447Z,1.42
2022-10-04T03:42:07.530Z,1.35
2022-10-04T03:44:34.860Z,1.38
2022-10-04T03:47:02.351Z,1.95
2022-10-04T03:49:33.551Z,2.00
2022-10-04T03:52:01.566Z,1.27
2022-10-04T03:54:29.159Z,0.93
2022-10-04T03:56:58.141Z,1.30
2022-10-04T03:59:27.973Z,1.27
2022-10-04T04:02:13.361Z,1.40
2022-10-04T04:04:52.569Z,1.30
2022-10-04T04:08:00.697Z,1.67
2022-10-04T04:10:33.843Z,1.70
2022-10-04T04:13:15.430Z,2.53
2022-10-04T04:15:43.338Z,2.28
2022-10-04T04:18:19.332Z,1.73
2022-10-04T04:20:48.102Z,2.47
2022-10-04T04:23:14.524Z,2.55
2022-10-04T04:25:44.248Z,2.30
2022-10-04T04:28:24.879Z,2.25
2022-10-04T04:30:57.502Z,2.45
2022-10-04T04:33:31.365Z,1.83
2022-10-04T04:36:06.325Z,1.77
2022-10-04T04:38:33.237Z,4.40
2022-10-04T04:41:09.848Z,4.65
2022-10-04T04:43:36.378Z,8.48
2022-10-04T04:46:26.512Z,13.98
2022-10-04T04:49:01.201Z,8.52
2022-10-04T04:51:29.233Z,4.65
2022-10-04T04:53:56.824Z,4.50
2022-10-04T04:56:27.763Z,3.40
2022-10-04T04:58:59.571Z,2.80
2022-10-04T05:01:29.193Z,2.97
2022-10-04T05:04:23.497Z,2.35
2022-10-04T05:07:04.307Z,2.40
2022-10-04T05:09:37.179Z,2.53
2022-10-04T05:12:15.352Z,2.22
2022-10-04T05:14:49.178Z,2.80
2022-10-04T05:17:22.883Z,2.22
2022-10-04T05:19:50.506Z,2.20
2022-10-04T05:22:21.196Z,2.50
2022-10-04T05:24:52.871Z,3.13
2022-10-04T05:27:39.229Z,2.95
2022-10-04T05:30:10.155Z,3.58
2022-10-04T05:32:50.673Z,3.17
2022-10-04T05:35:19.536Z,3.60
2022-10-04T05:38:09.522Z,2.83
2022-10-04T05:40:46.821Z,3.08
2022-10-04T05:43:35.306Z,3.17
2022-10-04T05:46:14.072Z,3.10
2022-10-04T05:48:43.349Z,3.45
2022-10-04T05:51:28.689Z,3.80
2022-10-04T05:53:59.726Z,4.05
2022-10-04T05:56:40.489Z,3.35
2022-10-04T05:59:35.235Z,3.30
2022-10-04T06:02:23.787Z,3.10
2022-10-04T06:05:08.232Z,3.63
2022-10-04T06:07:37.515Z,3.58
2022-10-04T06:10:26.008Z,3.13
2022-10-04T06:13:23.473Z,3.65
2022-10-04T06:16:04.364Z,266.88
2022-10-04T06:18:30.777Z,129.45
2022-10-04T06:21:21.393Z,159.23
2022-10-04T06:24:12.476Z,16.33
2022-10-04T06:26:47.191Z,7.63
2022-10-04T06:29:20.516Z,6.10
2022-10-04T06:32:04.930Z,4.03
2022-10-04T06:35:05.094Z,4.35
2022-10-04T06:37:56.512Z,6.10
2022-10-04T06:41:14.880Z,5.10
2022-10-04T06:44:18.727Z,3.45
2022-10-04T06:46:51.383Z,3.00
2022-10-04T06:49:46.924Z,3.30
2022-10-04T06:52:26.817Z,4.03
2022-10-04T06:55:13.475Z,4.28
2022-10-04T06:58:12.836Z,3.15
2022-10-04T07:00:52.633Z,2.92
2022-10-04T07:03:39.708Z,2.88
2022-10-04T07:06:11.262Z,2.40
2022-10-04T07:08:50.723Z,2.97
2022-10-04T07:11:30.153Z,2.58
2022-10-04T07:14:20.271Z,2.78
2022-10-04T07:16:51.070Z,2.10
2022-10-04T07:19:20.416Z,145.13
2022-10-04T07:21:56.015Z,55.58
2022-10-04T07:24:39.362Z,7.13
2022-10-04T07:27:10.437Z,2.08
2022-10-04T07:29:42.322Z,2.30
2022-10-04T07:32:22.575Z,2.03
2022-10-04T07:35:06.567Z,2.08
2022-10-04T07:37:55.079Z,2.22
2022-10-04T07:40:24.226Z,2.15
2022-10-04T07:43:13.349Z,2.55
2022-10-04T07:45:41.635Z,2.28
2022-10-04T07:48:17.701Z,1.60
2022-10-04T07:50:58.090Z,1.83
2022-10-04T07:53:53.513Z,2.30
2022-10-04T07:56:42.225Z,10.68
2022-10-04T07:59:41.094Z,4.60
2022-10-04T08:02:31.205Z,9.50
2022-10-04T08:05:07.714Z,3.05
2022-10-04T08:08:02.738Z,6.32
2022-10-04T08:10:44.736Z,4.80
2022-10-04T08:13:14.042Z,5.38
2022-10-04T08:15:43.127Z,5.15
2022-10-04T08:18:30.853Z,2.53
2022-10-04T08:21:01.902Z,3.45
2022-10-04T08:23:47.170Z,3.08
2022-10-04T08:26:51.339Z,3.40
2022-10-04T08:29:36.364Z,2.92
2022-10-04T08:32:10.381Z,2.45
2022-10-04T08:34:54.711Z,131.20
2022-10-04T08:37:33.195Z,5.00
2022-10-04T08:40:34.225Z,6.47
2022-10-04T08:43:37.394Z,1.92
2022-10-04T08:46:44.137Z,1.63
2022-10-04T08:49:20.021Z,1.50
2022-10-04T08:52:07.942Z,1.38
2022-10-04T08:54:57.080Z,1.10
2022-10-04T08:57:45.136Z,0.90
2022-10-04T09:00:30.474Z,4.40
2022-10-04T09:03:35.490Z,6.75
2022-10-04T09:06:38.984Z,0.80
2022-10-04T09:09:53.494Z,0.68
2022-10-04T09:12:47.195Z,0.63
2022-10-04T09:15:31.333Z,0.68
2022-10-04T09:18:13.440Z,1.88
2022-10-04T09:20:41.093Z,0.88
2022-10-04T09:23:26.991Z,0.60
2022-10-04T09:26:01.494Z,0.90
2022-10-04T09:28:38.582Z,86.28
2022-10-04T09:31:20.300Z,2.20
2022-10-04T09:34:03.346Z,0.57
2022-10-04T09:36:40.697Z,0.70
2022-10-04T09:39:45.574Z,0.77
2022-10-04T09:42:35.617Z,0.60
2022-10-04T09:45:06.030Z,1.00
2022-10-04T09:47:43.805Z,0.93
2022-10-04T09:50:17.442Z,0.70
2022-10-04T09:52:55.481Z,0.80
2022-10-04T09:55:42.094Z,0.98
2022-10-04T09:58:25.195Z,0.93
2022-10-04T10:01:09.890Z,0.82
2022-10-04T10:03:46.143Z,1.05
2022-10-04T10:06:24.711Z,1.10
2022-10-04T10:09:18.398Z,1.10
2022-10-04T10:12:43.109Z,0.90
2022-10-04T10:15:36.459Z,1.10
2022-10-04T10:18:24.220Z,1.58
2022-10-04T10:20:59.289Z,1.20
2022-10-04T10:23:26.442Z,1.30
2022-10-04T10:26:14.744Z,1.20
2022-10-04T10:29:03.045Z,1.25
2022-10-04T10:32:04.294Z,1.30
2022-10-04T10:34:45.840Z,1.05
2022-10-04T10:37:35.677Z,1.20
2022-10-04T10:41:00.092Z,1.10
2022-10-04T10:43:46.505Z,1.45
2022-10-04T10:46:39.484Z,1.17
2022-10-04T10:49:20.085Z,1.23
2022-10-04T10:52:07.300Z,1.50
2022-10-04T10:55:07.729Z,1.63
2022-10-04T10:58:05.143Z,2.10
2022-10-04T11:00:31.488Z,3.15
2022-10-04T11:03:32.367Z,2.75
2022-10-04T11:06:01.910Z,1.90
2022-10-04T11:08:56.980Z,2.63
2022-10-04T11:12:04.162Z,3.00
2022-10-04T11:14:41.009Z,5.15
2022-10-04T11:17:37.871Z,6.93
2022-10-04T11:20:38.171Z,6.95
2022-10-04T11:23:14.017Z,6.13
2022-10-04T11:26:04.005Z,6.50
2022-10-04T11:28:53.635Z,7.50
2022-10-04T11:31:26.148Z,8.52
2022-10-04T11:34:31.803Z,8.57
2022-10-04T11:37:14.510Z,8.10
2022-10-04T11:39:56.115Z,12.57
2022-10-04T11:42:43.805Z,11.48
2022-10-04T11:45:38.326Z,11.68
2022-10-04T11:48:35.077Z,11.90
2022-10-04T11:51:10.965Z,11.90
2022-10-04T11:54:13.094Z,11.30
2022-10-04T11:57:10.113Z,11.35
2022-10-04T12:00:01.780Z,10.13
2022-10-04T12:02:53.413Z,9.35
2022-10-04T12:05:38.400Z,12.48
2022-10-04T12:08:23.047Z,9.15
2022-10-04T12:11:27.019Z,10.90
2022-10-04T12:14:04.020Z,10.30
2022-10-04T12:17:12.673Z,10.63
2022-10-04T12:19:52.246Z,12.45
2022-10-04T12:22:52.951Z,9.32
2022-10-04T12:26:01.389Z,8.88
2022-10-04T12:28:39.807Z,10.60
2022-10-04T12:31:24.856Z,9.70
2022-10-04T12:34:14.778Z,10.57
2022-10-04T12:37:13.759Z,9.38
2022-10-04T12:39:56.745Z,10.68
2022-10-04T12:42:36.310Z,16.75
2022-10-04T12:45:30.607Z,10.55
2022-10-04T12:48:33.070Z,8.15
2022-10-04T12:51:21.459Z,8.88
2022-10-04T12:54:29.725Z,9.15
2022-10-04T12:57:14.720Z,8.50
2022-10-04T13:00:10.968Z,8.90
2022-10-04T13:03:02.545Z,9.38
2022-10-04T13:05:47.484Z,11.35
2022-10-04T13:08:39.864Z,12.10
2022-10-04T13:11:06.553Z,10.35
2022-10-04T13:13:41.886Z,11.90
2022-10-04T13:19:50.285Z,9.60
2022-10-04T13:22:55.375Z,9.10
2022-10-04T13:25:30.228Z,11.32
2022-10-04T13:28:11.735Z,9.95
2022-10-04T13:30:47.383Z,12.63
2022-10-04T13:33:28.968Z,12.52
2022-10-04T13:36:08.524Z,11.50
2022-10-04T13:38:37.997Z,11.57
2022-10-04T13:41:18.476Z,9.85
2022-10-04T13:43:56.980Z,11.80
2022-10-04T13:46:36.413Z,10.52
2022-10-04T13:49:18.346Z,9.52
2022-10-04T13:52:39.355Z,10.48
2022-10-04T13:55:24.005Z,9.50
2022-10-04T13:57:54.774Z,8.13
2022-10-04T14:00:55.495Z,8.40
2022-10-04T14:03:40.279Z,8.77
2022-10-04T14:06:28.297Z,9.27
2022-10-04T14:09:36.923Z,9.55
2022-10-04T14:12:25.802Z,8.38
2022-10-04T14:15:10.384Z,9.02
2022-10-04T14:17:49.397Z,9.27
2022-10-04T14:20:44.478Z,8.70
2022-10-04T14:23:33.795Z,8.27
2022-10-04T14:26:52.079Z,7.78
2022-10-04T14:29:26.180Z,8.35
2022-10-04T14:32:03.780Z,7.70
2022-10-04T14:34:53.676Z,8.52
2022-10-04T14:37:45.081Z,8.45
2022-10-04T14:40:36.563Z,8.60
2022-10-04T14:43:21.219Z,8.50
2022-10-04T14:46:09.150Z,10.77
2022-10-04T14:48:42.540Z,8.55
2022-10-04T14:51:41.628Z,9.15
2022-10-04T14:54:26.163Z,8.93
2022-10-04T14:57:25.057Z,8.65
2022-10-04T15:00:08.667Z,8.68
2022-10-04T15:02:42.645Z,8.38
2022-10-04T15:05:41.892Z,9.10
2022-10-04T15:08:41.512Z,8.68
2022-10-04T15:11:12.466Z,9.20
2022-10-04T15:13:55.637Z,10.23
2022-10-04T15:16:45.527Z,9.73
2022-10-04T15:19:21.245Z,9.60
2022-10-04T15:21:53.629Z,9.82
2022-10-04T15:24:27.983Z,9.48
2022-10-04T15:27:28.745Z,8.45
2022-10-04T15:30:11.977Z,8.48
2022-10-04T15:32:50.249Z,7.78
2022-10-04T15:35:25.683Z,7.93
2022-10-04T15:38:07.187Z,7.70
2022-10-04T15:40:41.961Z,7.50
2022-10-04T15:43:20.226Z,8.43
2022-10-04T15:46:00.769Z,8.80
2022-10-04T15:48:48.386Z,26.48
2022-10-04T15:51:14.774Z,13.00
2022-10-04T15:54:05.856Z,11.70
2022-10-04T15:56:41.494Z,9.35
2022-10-04T15:59:27.070Z,8.95
2022-10-04T16:02:00.379Z,8.82
2022-10-04T16:04:55.825Z,9.07
2022-10-04T16:07:51.013Z,7.40
2022-10-04T16:10:24.129Z,7.75
2022-10-04T16:15:31.375Z,7.03
2022-10-04T16:18:10.096Z,154.55
2022-10-04T16:20:58.761Z,43.00
2022-10-04T16:23:44.074Z,367.33
2022-10-04T16:26:16.286Z,408.23
2022-10-04T16:29:12.654Z,489.17
2022-10-04T16:31:50.110Z,221.82
2022-10-04T16:34:45.667Z,54.40
2022-10-04T16:37:33.550Z,33.40
2022-10-04T16:40:09.677Z,289.65
2022-10-04T16:42:46.114Z,161.98
2022-10-04T16:45:43.515Z,66.35
2022-10-04T16:48:29.134Z,28.55
2022-10-04T16:51:05.319Z,14.68
2022-10-04T16:53:53.874Z,10.75
2022-10-04T16:56:30.136Z,9.75
2022-10-04T16:59:05.437Z,9.40
2022-10-04T17:01:38.559Z,9.13
2022-10-04T17:06:44.129Z,8.75
2022-10-04T17:09:47.874Z,8.68
2022-10-04T17:12:19.164Z,8.75
2022-10-04T17:14:53.021Z,8.57
2022-10-04T17:17:46.824Z,8.57
2022-10-04T17:24:10.796Z,92.93
2022-10-04T17:27:03.225Z,413.13
2022-10-04T17:30:08.131Z,28.58
2022-10-04T17:32:47.297Z,11.85
2022-10-04T17:35:32.797Z,8.85
2022-10-04T17:38:25.986Z,10.55
2022-10-04T17:41:16.035Z,11.35
2022-10-04T17:44:19.304Z,11.32
2022-10-04T17:46:50.929Z,11.75
2022-10-04T17:50:09.187Z,12.18
2022-10-04T17:53:03.867Z,11.85
2022-10-04T17:55:48.834Z,11.48
2022-10-04T17:58:47.797Z,10.88
2022-10-04T18:01:29.292Z,11.25
2022-10-04T18:04:23.575Z,11.48
2022-10-04T18:06:56.773Z,10.82
2022-10-04T18:09:41.364Z,10.75
2022-10-04T18:12:29.040Z,11.48
2022-10-04T18:15:07.339Z,12.60
2022-10-04T18:17:46.164Z,12.73
2022-10-04T18:20:53.046Z,11.15
2022-10-04T18:23:35.161Z,10.27
2022-10-04T18:26:18.422Z,10.45
2022-10-04T18:28:47.427Z,11.07
2022-10-04T18:31:13.797Z,10.25
2022-10-04T18:33:40.289Z,10.82
2022-10-04T18:36:27.363Z,10.80
2022-10-04T18:39:11.760Z,12.00
2022-10-04T18:41:54.345Z,11.40
2022-10-04T18:44:29.516Z,11.57
2022-10-04T18:46:59.378Z,12.35
2022-10-04T18:49:31.035Z,12.95
2022-10-04T18:52:10.713Z,13.20
2022-10-04T18:54:49.345Z,12.85
2022-10-04T18:57:33.411Z,13.70
2022-10-04T19:00:31.664Z,14.63
2022-10-04T19:03:18.151Z,13.88
2022-10-04T19:06:01.293Z,13.73
2022-10-04T19:08:53.263Z,14.23
2022-10-04T19:11:29.082Z,13.98
2022-10-04T19:14:25.937Z,14.48
2022-10-04T19:17:08.865Z,15.02
2022-10-04T19:20:04.271Z,14.32
2022-10-04T19:22:50.016Z,13.65
2022-10-04T19:25:27.211Z,14.23
2022-10-04T19:28:08.755Z,13.50
2022-10-04T19:30:43.301Z,13.00
2022-10-04T19:33:17.589Z,13.10
2022-10-04T19:36:22.254Z,12.82
2022-10-04T19:39:26.061Z,13.40
2022-10-04T19:44:42.450Z,13.52
2022-10-04T19:47:35.104Z,14.88
2022-10-04T19:50:21.450Z,15.00
2022-10-04T19:52:57.655Z,20.17
2022-10-04T19:55:41.433Z,21.55
2022-10-04T19:58:22.699Z,22.00
2022-10-04T20:00:49.237Z,23.25
2022-10-04T20:03:16.165Z,23.13
2022-10-04T20:05:48.684Z,22.13
2022-10-04T20:08:17.242Z,22.80
2022-10-04T20:10:44.184Z,20.75
2022-10-04T20:13:10.762Z,20.00
2022-10-04T20:15:37.735Z,19.67
2022-10-04T20:18:31.898Z,19.77
2022-10-04T20:21:01.568Z,19.48
2022-10-04T20:23:40.467Z,18.27
2022-10-04T20:26:08.520Z,20.75
2022-10-04T20:28:41.730Z,19.27
2022-10-04T20:31:10.804Z,20.02
2022-10-04T20:33:38.901Z,16.58
2022-10-04T20:36:09.864Z,16.58
2022-10-04T20:38:49.958Z,16.33
2022-10-04T20:41:28.547Z,13.52
2022-10-04T20:44:01.438Z,15.27
2022-10-04T20:46:38.058Z,16.08
2022-10-04T20:49:17.942Z,17.60
2022-10-04T20:51:50.829Z,17.80
2022-10-04T20:54:22.486Z,18.35
2022-10-04T20:56:50.331Z,15.55
2022-10-04T20:59:17.870Z,15.48
2022-10-04T21:02:04.427Z,14.93
2022-10-04T21:04:41.473Z,13.20
2022-10-04T21:07:12.480Z,13.13
2022-10-04T21:09:41.363Z,12.98
2022-10-04T21:12:30.720Z,13.07
2022-10-04T21:15:21.642Z,13.82
2022-10-04T21:18:03.259Z,14.52
2022-10-04T21:20:49.321Z,14.23
2022-10-04T21:23:33.733Z,14.45
2022-10-04T21:26:23.381Z,13.45
2022-10-04T21:28:54.065Z,13.23
2022-10-04T21:31:20.523Z,13.48
2022-10-04T21:33:47.124Z,13.85
2022-10-04T21:36:13.711Z,13.63
2022-10-04T21:38:40.527Z,14.00
2022-10-04T21:41:07.366Z,12.65
2022-10-04T21:43:34.431Z,13.75
2022-10-04T21:46:01.087Z,14.55
2022-10-04T21:48:27.660Z,14.32
2022-10-04T21:50:55.174Z,13.55
2022-10-04T21:53:22.294Z,14.02
2022-10-04T21:55:49.087Z,12.80
2022-10-04T21:58:16.087Z,14.45
2022-10-04T22:00:42.569Z,13.77
2022-10-04T22:03:09.000Z,15.10
2022-10-04T22:05:35.512Z,12.95
2022-10-04T22:08:02.010Z,13.23
2022-10-04T22:10:28.746Z,12.23
2022-10-04T22:12:56.967Z,13.75
2022-10-04T22:15:25.703Z,12.95
2022-10-04T22:17:52.271Z,13.35
2022-10-04T22:20:19.146Z,12.48
2022-10-04T22:22:45.644Z,12.13
2022-10-04T22:25:17.990Z,12.30
2022-10-04T22:27:45.273Z,12.30
2022-10-04T22:30:21.688Z,11.93
2022-10-04T22:32:48.728Z,11.45
2022-10-04T22:35:19.155Z,11.57
2022-10-04T22:37:46.760Z,11.70
2022-10-04T22:40:22.011Z,11.32
2022-10-04T22:42:54.053Z,11.50
2022-10-04T22:45:27.052Z,11.35
2022-10-04T22:50:32.207Z,11.60
2022-10-04T22:53:03.187Z,11.45
2022-10-04T22:55:29.692Z,11.15
2022-10-04T22:57:56.307Z,11.20
2022-10-04T23:00:22.728Z,10.93
2022-10-04T23:02:49.211Z,10.95
2022-10-04T23:05:18.522Z,10.45
2022-10-04T23:07:46.436Z,10.35
2022-10-04T23:10:15.216Z,10.32
2022-10-04T23:12:45.523Z,10.30
2022-10-04T23:15:20.091Z,10.10
2022-10-04T23:17:53.973Z,10.20
2022-10-04T23:20:20.549Z,10.43
2022-10-04T23:22:49.103Z,9.32
2022-10-04T23:25:19.989Z,9.52
2022-10-04T23:27:47.772Z,9.95
2022-10-04T23:30:20.291Z,10.02
2022-10-04T23:32:49.325Z,9.73
2022-10-04T23:35:29.933Z,9.55
2022-10-04T23:37:56.635Z,10.45
2022-10-04T23:40:24.777Z,9.95
2022-10-04T23:42:54.886Z,9.27
2022-10-04T23:45:23.751Z,8.82
2022-10-04T23:47:54.127Z,9.02
2022-10-04T23:50:33.999Z,9.23
2022-10-04T23:53:06.506Z,9.77
2022-10-04T23:55:38.780Z,9.90
2022-10-04T23:58:20.218Z,9.60
